Williams Lake Airport
CYWL : now visible

Airfield :











YOU CAN JOIN US ON...

 
LOGIN :

Register | Disclaimer

   EN    FR    IT 

 









Legend :    VFR   Marginal VFR   IFR   Intensive IFR   Very Intensive IFR
Visi :
Ceiling :
>= 8 km
>= 3000ft
5 to 8 km
1000 to 3000 ft
1500m to 5 km
500 to 1000 ft
800 to 1500m
200 to 500 ft
< 800m
< 200 ft
Symbols :   Thunderstorms  Fog  Heavy snow  Heavy precipitations  Wind > 20 kt






- Airport Elevation : 3085 ft
- IATA code : YWL


CYWL - Williams Lake

CURRENT METAR :
  • 170300Z 27005KT 260V320 14SM FEW060TCU BKN200 12/05 A2987 RMK TCU2CI4 SLP130 DENSITY ALT 3600FT

EXPIRED METARs :
  • 170200Z 31010KT 15SM SCT060 BKN100 12/05 A2987 RMK CU3AC2 SLP132 DENSITY ALT 3600FT
  • 170100Z 31008KT 15SM BKN060 12/04 A2988 RMK CU6 SLP136 DENSITY ALT 3500FT
  • 170000Z 33017G23KT 15SM OVC065 11/04 A2990 RMK CU8 SLP144 DENSITY ALT 3400FT
  • 162300Z 31011KT 15SM BKN060 11/06 A2989 RMK CU7 SLP139 DENSITY ALT 3400FT

TAF TAF CYWL
Valid from the 17 at 01:00 until the 17 at 13:00 UTC


170040Z 1701/1713 30010KT P6SM BKN050
TEMPO 1701/1704 P6SM -SHRA
FM170400 30008KT P6SM SCT050
FM170600 30008KT P6SM SCT200
FM171100 VRB03KT P6SM FEW008 SCT200
PROB30 1711/1713 2SM BR RMK NXT FCST BY 170700Z
CZVR FIR / North America



MET'MAP, your aeronautical weather chart ! - Copyright ORBIFLY December 2007 - Disclaimer

ORBIFLY MET'MAP TEAM :

Programming & Development : Alexandra Zaïnal
Original concept : Baudouin d'Aumeries
Technical & hardware support : Manuel Goepfert
Assistance : Marc-Olivier Méhu




SOURCES & CREDITS :

   NOAA       Earth
Advisory